sensor_id;sensor_type;location;lat;lon;timestamp;temperature;humidity
52481;DHT22;38393;52.404;13.532;2024-03-29T00:01:20;9.00;99.90
52481;DHT22;38393;52.404;13.532;2024-03-29T00:03:46;9.10;99.90
52481;DHT22;38393;52.404;13.532;2024-03-29T00:06:11;9.20;99.90
52481;DHT22;38393;52.404;13.532;2024-03-29T00:08:37;9.30;99.90
52481;DHT22;38393;52.404;13.532;2024-03-29T00:11:03;9.20;99.90
52481;DHT22;38393;52.404;13.532;2024-03-29T00:13:29;9.10;99.90
52481;DHT22;38393;52.404;13.532;2024-03-29T00:15:54;9.00;99.90
52481;DHT22;38393;52.404;13.532;2024-03-29T00:18:20;9.00;99.90
52481;DHT22;38393;52.404;13.532;2024-03-29T00:20:45;8.90;99.90
52481;DHT22;38393;52.404;13.532;2024-03-29T00:23:11;8.80;99.90
52481;DHT22;38393;52.404;13.532;2024-03-29T00:25:36;8.70;99.90
52481;DHT22;38393;52.404;13.532;2024-03-29T00:28:02;8.60;99.90
52481;DHT22;38393;52.404;13.532;2024-03-29T00:30:28;8.60;99.90
52481;DHT22;38393;52.404;13.532;2024-03-29T00:32:54;8.60;99.90
52481;DHT22;38393;52.404;13.532;2024-03-29T00:35:19;8.30;99.90
52481;DHT22;38393;52.404;13.532;2024-03-29T00:37:46;8.40;99.90
52481;DHT22;38393;52.404;13.532;2024-03-29T00:40:11;8.10;99.90
52481;DHT22;38393;52.404;13.532;2024-03-29T00:42:37;8.10;99.90
52481;DHT22;38393;52.404;13.532;2024-03-29T00:45:02;8.00;99.90
52481;DHT22;38393;52.404;13.532;2024-03-29T00:47:28;7.80;99.90
52481;DHT22;38393;52.404;13.532;2024-03-29T00:49:53;7.70;99.90
52481;DHT22;38393;52.404;13.532;2024-03-29T00:52:19;7.70;99.90
52481;DHT22;38393;52.404;13.532;2024-03-29T00:54:45;7.60;99.90
52481;DHT22;38393;52.404;13.532;2024-03-29T00:57:10;7.50;99.90
52481;DHT22;38393;52.404;13.532;2024-03-29T00:59:38;7.40;99.90
52481;DHT22;38393;52.404;13.532;2024-03-29T01:02:04;7.30;99.90
52481;DHT22;38393;52.404;13.532;2024-03-29T01:04:29;7.10;99.90
52481;DHT22;38393;52.404;13.532;2024-03-29T01:06:55;7.10;99.90
52481;DHT22;38393;52.404;13.532;2024-03-29T01:09:22;7.00;99.90
52481;DHT22;38393;52.404;13.532;2024-03-29T01:11:47;7.00;99.90
52481;DHT22;38393;52.404;13.532;2024-03-29T01:14:13;7.00;99.90
52481;DHT22;38393;52.404;13.532;2024-03-29T01:16:38;7.00;99.90
52481;DHT22;38393;52.404;13.532;2024-03-29T01:19:03;7.00;99.90
52481;DHT22;38393;52.404;13.532;2024-03-29T01:21:30;7.00;99.90
52481;DHT22;38393;52.404;13.532;2024-03-29T01:23:56;7.00;99.90
52481;DHT22;38393;52.404;13.532;2024-03-29T01:26:21;6.80;99.90
52481;DHT22;38393;52.404;13.532;2024-03-29T01:28:47;6.70;99.90
52481;DHT22;38393;52.404;13.532;2024-03-29T01:31:12;6.70;99.90
52481;DHT22;38393;52.404;13.532;2024-03-29T01:33:38;6.60;99.90
52481;DHT22;38393;52.404;13.532;2024-03-29T01:36:06;6.50;99.90
52481;DHT22;38393;52.404;13.532;2024-03-29T01:38:34;6.50;99.90
52481;DHT22;38393;52.404;13.532;2024-03-29T01:40:59;6.40;99.90
52481;DHT22;38393;52.404;13.532;2024-03-29T01:43:25;6.40;99.90
52481;DHT22;38393;52.404;13.532;2024-03-29T01:45:54;6.50;99.90
52481;DHT22;38393;52.404;13.532;2024-03-29T01:48:22;6.50;99.90
52481;DHT22;38393;52.404;13.532;2024-03-29T01:50:48;6.50;99.90
52481;DHT22;38393;52.404;13.532;2024-03-29T01:53:16;6.20;99.90
52481;DHT22;38393;52.404;13.532;2024-03-29T01:55:43;6.20;99.90
52481;DHT22;38393;52.404;13.532;2024-03-29T01:58:09;6.30;99.90
52481;DHT22;38393;52.404;13.532;2024-03-29T02:00:42;6.30;99.90
52481;DHT22;38393;52.404;13.532;2024-03-29T02:03:09;6.40;99.90
52481;DHT22;38393;52.404;13.532;2024-03-29T02:05:39;6.20;99.90
52481;DHT22;38393;52.404;13.532;2024-03-29T02:08:06;6.20;99.90
52481;DHT22;38393;52.404;13.532;2024-03-29T02:10:32;6.20;99.90
52481;DHT22;38393;52.404;13.532;2024-03-29T02:12:57;6.20;99.90
52481;DHT22;38393;52.404;13.532;2024-03-29T02:15:23;6.20;99.90
52481;DHT22;38393;52.404;13.532;2024-03-29T02:17:48;6.20;99.90
52481;DHT22;38393;52.404;13.532;2024-03-29T02:20:16;6.30;99.90
52481;DHT22;38393;52.404;13.532;2024-03-29T02:22:47;6.40;99.90
52481;DHT22;38393;52.404;13.532;2024-03-29T02:25:14;6.30;99.90
52481;DHT22;38393;52.404;13.532;2024-03-29T02:27:40;6.30;99.90
52481;DHT22;38393;52.404;13.532;2024-03-29T02:30:06;6.30;99.90
52481;DHT22;38393;52.404;13.532;2024-03-29T02:32:31;6.20;99.90
52481;DHT22;38393;52.404;13.532;2024-03-29T02:34:57;6.10;99.90
52481;DHT22;38393;52.404;13.532;2024-03-29T02:37:23;6.00;99.90
52481;DHT22;38393;52.404;13.532;2024-03-29T02:39:48;6.10;99.90
52481;DHT22;38393;52.404;13.532;2024-03-29T02:42:13;6.00;99.90
52481;DHT22;38393;52.404;13.532;2024-03-29T02:44:39;6.20;99.90
52481;DHT22;38393;52.404;13.532;2024-03-29T02:47:04;5.90;99.90
52481;DHT22;38393;52.404;13.532;2024-03-29T02:49:30;5.90;99.90
52481;DHT22;38393;52.404;13.532;2024-03-29T02:51:55;5.80;99.90
52481;DHT22;38393;52.404;13.532;2024-03-29T02:54:21;5.70;99.90
52481;DHT22;38393;52.404;13.532;2024-03-29T02:56:46;5.70;99.90
52481;DHT22;38393;52.404;13.532;2024-03-29T02:59:12;5.70;99.90
52481;DHT22;38393;52.404;13.532;2024-03-29T03:01:37;5.40;99.90
52481;DHT22;38393;52.404;13.532;2024-03-29T03:04:03;5.40;99.90
52481;DHT22;38393;52.404;13.532;2024-03-29T03:06:28;5.40;99.90
52481;DHT22;38393;52.404;13.532;2024-03-29T03:08:54;5.40;99.90
52481;DHT22;38393;52.404;13.532;2024-03-29T03:11:38;5.40;99.90
52481;DHT22;38393;52.404;13.532;2024-03-29T03:14:03;5.40;99.90
52481;DHT22;38393;52.404;13.532;2024-03-29T03:16:29;5.30;99.90
52481;DHT22;38393;52.404;13.532;2024-03-29T03:18:54;5.20;99.90
52481;DHT22;38393;52.404;13.532;2024-03-29T03:21:20;5.20;99.90
52481;DHT22;38393;52.404;13.532;2024-03-29T03:23:46;5.30;99.90
52481;DHT22;38393;52.404;13.532;2024-03-29T03:26:11;5.30;99.90
52481;DHT22;38393;52.404;13.532;2024-03-29T03:28:37;5.20;99.90
52481;DHT22;38393;52.404;13.532;2024-03-29T03:31:02;5.30;99.90
52481;DHT22;38393;52.404;13.532;2024-03-29T03:33:28;5.30;99.90
52481;DHT22;38393;52.404;13.532;2024-03-29T03:35:53;5.20;99.90
52481;DHT22;38393;52.404;13.532;2024-03-29T03:38:19;5.30;99.90
52481;DHT22;38393;52.404;13.532;2024-03-29T03:40:44;5.30;99.90
52481;DHT22;38393;52.404;13.532;2024-03-29T03:43:10;5.30;99.90
52481;DHT22;38393;52.404;13.532;2024-03-29T03:45:37;5.30;99.90
52481;DHT22;38393;52.404;13.532;2024-03-29T03:48:09;5.20;99.90
52481;DHT22;38393;52.404;13.532;2024-03-29T03:50:39;5.10;99.90
52481;DHT22;38393;52.404;13.532;2024-03-29T03:53:06;5.10;99.90
52481;DHT22;38393;52.404;13.532;2024-03-29T03:55:35;5.10;99.90
52481;DHT22;38393;52.404;13.532;2024-03-29T03:58:01;5.20;99.90
52481;DHT22;38393;52.404;13.532;2024-03-29T04:00:28;5.10;99.90
52481;DHT22;38393;52.404;13.532;2024-03-29T04:02:53;5.10;99.90
52481;DHT22;38393;52.404;13.532;2024-03-29T04:05:19;5.10;99.90
52481;DHT22;38393;52.404;13.532;2024-03-29T04:07:45;5.10;99.90
52481;DHT22;38393;52.404;13.532;2024-03-29T04:10:11;5.00;99.90
52481;DHT22;38393;52.404;13.532;2024-03-29T04:12:37;5.00;99.90
52481;DHT22;38393;52.404;13.532;2024-03-29T04:15:03;5.00;99.90
52481;DHT22;38393;52.404;13.532;2024-03-29T04:17:29;4.80;99.90
52481;DHT22;38393;52.404;13.532;2024-03-29T04:19:58;5.00;99.90
52481;DHT22;38393;52.404;13.532;2024-03-29T04:22:24;4.80;99.90
52481;DHT22;38393;52.404;13.532;2024-03-29T04:24:51;4.70;99.90
52481;DHT22;38393;52.404;13.532;2024-03-29T04:27:16;4.70;99.90
52481;DHT22;38393;52.404;13.532;2024-03-29T04:29:42;4.60;99.90
52481;DHT22;38393;52.404;13.532;2024-03-29T04:32:08;4.80;99.90
52481;DHT22;38393;52.404;13.532;2024-03-29T04:34:33;4.70;99.90
52481;DHT22;38393;52.404;13.532;2024-03-29T04:36:59;4.80;99.90
52481;DHT22;38393;52.404;13.532;2024-03-29T04:39:24;4.90;99.90
52481;DHT22;38393;52.404;13.532;2024-03-29T04:41:50;4.80;99.90
52481;DHT22;38393;52.404;13.532;2024-03-29T04:44:24;4.80;99.90
52481;DHT22;38393;52.404;13.532;2024-03-29T04:46:50;4.80;99.90
52481;DHT22;38393;52.404;13.532;2024-03-29T04:49:15;4.80;99.90
52481;DHT22;38393;52.404;13.532;2024-03-29T04:51:43;5.00;99.90
52481;DHT22;38393;52.404;13.532;2024-03-29T04:54:08;5.10;99.90
52481;DHT22;38393;52.404;13.532;2024-03-29T04:56:34;5.10;99.90
52481;DHT22;38393;52.404;13.532;2024-03-29T04:59:01;5.20;99.90
52481;DHT22;38393;52.404;13.532;2024-03-29T05:01:27;5.20;99.90
52481;DHT22;38393;52.404;13.532;2024-03-29T05:03:53;5.10;99.90
52481;DHT22;38393;52.404;13.532;2024-03-29T05:06:18;5.20;99.90
52481;DHT22;38393;52.404;13.532;2024-03-29T05:08:44;5.30;99.90
52481;DHT22;38393;52.404;13.532;2024-03-29T05:11:09;5.40;99.90
52481;DHT22;38393;52.404;13.532;2024-03-29T05:13:36;5.50;99.90
52481;DHT22;38393;52.404;13.532;2024-03-29T05:16:04;5.60;99.90
52481;DHT22;38393;52.404;13.532;2024-03-29T05:18:29;5.70;99.90
52481;DHT22;38393;52.404;13.532;2024-03-29T05:20:54;5.70;99.90
52481;DHT22;38393;52.404;13.532;2024-03-29T05:23:20;5.80;99.90
52481;DHT22;38393;52.404;13.532;2024-03-29T05:25:46;5.90;99.90
52481;DHT22;38393;52.404;13.532;2024-03-29T05:28:13;5.90;99.90
52481;DHT22;38393;52.404;13.532;2024-03-29T05:30:39;6.00;99.90
52481;DHT22;38393;52.404;13.532;2024-03-29T05:33:04;5.90;99.90
52481;DHT22;38393;52.404;13.532;2024-03-29T05:35:32;5.90;99.90
52481;DHT22;38393;52.404;13.532;2024-03-29T05:37:57;6.00;99.90
52481;DHT22;38393;52.404;13.532;2024-03-29T05:40:23;6.00;99.90
52481;DHT22;38393;52.404;13.532;2024-03-29T05:42:50;6.10;99.90
52481;DHT22;38393;52.404;13.532;2024-03-29T05:45:27;6.10;99.90
52481;DHT22;38393;52.404;13.532;2024-03-29T05:47:54;6.10;99.90
52481;DHT22;38393;52.404;13.532;2024-03-29T05:50:20;6.20;99.90
52481;DHT22;38393;52.404;13.532;2024-03-29T05:52:45;6.30;99.90
52481;DHT22;38393;52.404;13.532;2024-03-29T05:55:11;6.40;99.90
52481;DHT22;38393;52.404;13.532;2024-03-29T05:57:36;6.40;99.90
52481;DHT22;38393;52.404;13.532;2024-03-29T06:00:07;6.40;99.90
52481;DHT22;38393;52.404;13.532;2024-03-29T06:02:34;6.50;99.90
52481;DHT22;38393;52.404;13.532;2024-03-29T06:05:00;6.60;99.90
52481;DHT22;38393;52.404;13.532;2024-03-29T06:07:25;6.70;99.90
52481;DHT22;38393;52.404;13.532;2024-03-29T06:09:53;6.70;99.90
52481;DHT22;38393;52.404;13.532;2024-03-29T06:12:19;6.70;99.90
52481;DHT22;38393;52.404;13.532;2024-03-29T06:14:44;6.80;99.90
52481;DHT22;38393;52.404;13.532;2024-03-29T06:17:28;7.00;99.90
52481;DHT22;38393;52.404;13.532;2024-03-29T06:19:55;7.00;99.90
52481;DHT22;38393;52.404;13.532;2024-03-29T06:22:23;7.10;99.90
52481;DHT22;38393;52.404;13.532;2024-03-29T06:24:49;7.20;99.90
52481;DHT22;38393;52.404;13.532;2024-03-29T06:27:17;7.30;99.90
52481;DHT22;38393;52.404;13.532;2024-03-29T06:29:43;7.40;99.90
52481;DHT22;38393;52.404;13.532;2024-03-29T06:32:09;7.40;99.90
52481;DHT22;38393;52.404;13.532;2024-03-29T06:34:35;7.50;99.90
52481;DHT22;38393;52.404;13.532;2024-03-29T06:37:01;7.60;99.90
52481;DHT22;38393;52.404;13.532;2024-03-29T06:39:26;7.60;99.90
52481;DHT22;38393;52.404;13.532;2024-03-29T06:41:52;7.60;99.90
52481;DHT22;38393;52.404;13.532;2024-03-29T06:44:18;7.90;99.90
52481;DHT22;38393;52.404;13.532;2024-03-29T06:46:43;7.80;99.90
52481;DHT22;38393;52.404;13.532;2024-03-29T06:49:09;8.00;99.90
52481;DHT22;38393;52.404;13.532;2024-03-29T06:51:34;8.00;99.90
52481;DHT22;38393;52.404;13.532;2024-03-29T06:53:59;8.10;99.90
52481;DHT22;38393;52.404;13.532;2024-03-29T06:56:25;8.10;99.90
52481;DHT22;38393;52.404;13.532;2024-03-29T06:58:50;8.20;99.90
52481;DHT22;38393;52.404;13.532;2024-03-29T07:01:16;8.30;99.90
52481;DHT22;38393;52.404;13.532;2024-03-29T07:03:41;8.40;99.90
52481;DHT22;38393;52.404;13.532;2024-03-29T07:06:07;8.50;99.90
52481;DHT22;38393;52.404;13.532;2024-03-29T07:08:32;8.80;99.90
52481;DHT22;38393;52.404;13.532;2024-03-29T07:11:01;8.90;99.90
52481;DHT22;38393;52.404;13.532;2024-03-29T07:13:29;8.90;99.90
52481;DHT22;38393;52.404;13.532;2024-03-29T07:15:57;9.00;99.90
52481;DHT22;38393;52.404;13.532;2024-03-29T07:18:22;9.10;99.90
52481;DHT22;38393;52.404;13.532;2024-03-29T07:20:48;9.00;99.90
52481;DHT22;38393;52.404;13.532;2024-03-29T07:23:14;9.00;99.90
52481;DHT22;38393;52.404;13.532;2024-03-29T07:25:40;9.10;99.90
52481;DHT22;38393;52.404;13.532;2024-03-29T07:28:05;9.10;99.90
52481;DHT22;38393;52.404;13.532;2024-03-29T07:30:31;9.10;99.90
52481;DHT22;38393;52.404;13.532;2024-03-29T07:32:56;9.30;99.90
52481;DHT22;38393;52.404;13.532;2024-03-29T07:35:22;9.30;99.90
52481;DHT22;38393;52.404;13.532;2024-03-29T07:37:47;9.30;99.90
52481;DHT22;38393;52.404;13.532;2024-03-29T07:40:15;9.40;99.90
52481;DHT22;38393;52.404;13.532;2024-03-29T07:42:41;9.40;99.90
52481;DHT22;38393;52.404;13.532;2024-03-29T07:45:07;9.50;99.90
52481;DHT22;38393;52.404;13.532;2024-03-29T07:47:33;9.80;99.90
52481;DHT22;38393;52.404;13.532;2024-03-29T07:49:58;9.80;99.90
52481;DHT22;38393;52.404;13.532;2024-03-29T07:52:23;10.00;99.90
52481;DHT22;38393;52.404;13.532;2024-03-29T07:54:50;10.10;99.90
52481;DHT22;38393;52.404;13.532;2024-03-29T07:57:15;10.00;99.90
52481;DHT22;38393;52.404;13.532;2024-03-29T07:59:42;10.00;99.90
52481;DHT22;38393;52.404;13.532;2024-03-29T08:02:08;10.10;99.90
52481;DHT22;38393;52.404;13.532;2024-03-29T08:04:34;10.10;99.90
52481;DHT22;38393;52.404;13.532;2024-03-29T08:06:59;10.10;99.90
52481;DHT22;38393;52.404;13.532;2024-03-29T08:09:25;10.10;99.90
52481;DHT22;38393;52.404;13.532;2024-03-29T08:11:50;10.10;99.90
52481;DHT22;38393;52.404;13.532;2024-03-29T08:14:16;10.20;99.90
52481;DHT22;38393;52.404;13.532;2024-03-29T08:16:41;10.10;99.90
52481;DHT22;38393;52.404;13.532;2024-03-29T08:19:08;10.20;99.90
52481;DHT22;38393;52.404;13.532;2024-03-29T08:21:33;10.20;99.90
52481;DHT22;38393;52.404;13.532;2024-03-29T08:23:59;10.20;99.90
52481;DHT22;38393;52.404;13.532;2024-03-29T08:26:26;10.30;99.90
52481;DHT22;38393;52.404;13.532;2024-03-29T08:28:54;10.20;99.90
52481;DHT22;38393;52.404;13.532;2024-03-29T08:31:19;10.20;99.90
52481;DHT22;38393;52.404;13.532;2024-03-29T08:33:44;10.30;99.90
52481;DHT22;38393;52.404;13.532;2024-03-29T08:36:10;10.30;99.90
52481;DHT22;38393;52.404;13.532;2024-03-29T08:38:37;10.30;99.90
52481;DHT22;38393;52.404;13.532;2024-03-29T08:41:06;10.50;99.90
52481;DHT22;38393;52.404;13.532;2024-03-29T08:43:32;10.60;99.90
52481;DHT22;38393;52.404;13.532;2024-03-29T08:45:57;10.70;99.90
52481;DHT22;38393;52.404;13.532;2024-03-29T08:48:23;10.80;99.90
52481;DHT22;38393;52.404;13.532;2024-03-29T08:50:50;10.90;99.90
52481;DHT22;38393;52.404;13.532;2024-03-29T08:53:16;11.00;99.90
52481;DHT22;38393;52.404;13.532;2024-03-29T08:55:41;11.10;99.90
52481;DHT22;38393;52.404;13.532;2024-03-29T08:58:07;11.00;99.90
52481;DHT22;38393;52.404;13.532;2024-03-29T09:00:32;11.20;99.90
52481;DHT22;38393;52.404;13.532;2024-03-29T09:02:58;11.30;99.90
52481;DHT22;38393;52.404;13.532;2024-03-29T09:05:24;11.30;99.90
52481;DHT22;38393;52.404;13.532;2024-03-29T09:07:50;11.40;99.90
52481;DHT22;38393;52.404;13.532;2024-03-29T09:10:16;11.50;99.90
52481;DHT22;38393;52.404;13.532;2024-03-29T09:12:42;11.50;99.80
52481;DHT22;38393;52.404;13.532;2024-03-29T09:15:08;11.70;99.90
52481;DHT22;38393;52.404;13.532;2024-03-29T09:17:41;11.80;98.60
52481;DHT22;38393;52.404;13.532;2024-03-29T09:20:07;11.90;98.80
52481;DHT22;38393;52.404;13.532;2024-03-29T09:22:33;12.10;98.80
52481;DHT22;38393;52.404;13.532;2024-03-29T09:24:59;12.20;98.40
52481;DHT22;38393;52.404;13.532;2024-03-29T09:27:25;12.50;97.00
52481;DHT22;38393;52.404;13.532;2024-03-29T09:29:50;12.50;96.70
52481;DHT22;38393;52.404;13.532;2024-03-29T09:32:16;12.30;96.60
52481;DHT22;38393;52.404;13.532;2024-03-29T09:34:43;12.30;96.50
52481;DHT22;38393;52.404;13.532;2024-03-29T09:37:09;12.50;95.30
52481;DHT22;38393;52.404;13.532;2024-03-29T09:39:35;12.60;94.10
52481;DHT22;38393;52.404;13.532;2024-03-29T09:42:05;12.50;93.00
52481;DHT22;38393;52.404;13.532;2024-03-29T09:44:32;12.70;91.90
52481;DHT22;38393;52.404;13.532;2024-03-29T09:47:02;12.80;92.20
52481;DHT22;38393;52.404;13.532;2024-03-29T09:49:32;12.80;91.10
52481;DHT22;38393;52.404;13.532;2024-03-29T09:51:59;12.80;92.40
52481;DHT22;38393;52.404;13.532;2024-03-29T09:54:28;12.70;91.30
52481;DHT22;38393;52.404;13.532;2024-03-29T09:56:57;12.70;92.30
52481;DHT22;38393;52.404;13.532;2024-03-29T09:59:26;12.90;91.30
52481;DHT22;38393;52.404;13.532;2024-03-29T10:01:55;12.70;90.60
52481;DHT22;38393;52.404;13.532;2024-03-29T10:04:22;12.90;91.80
52481;DHT22;38393;52.404;13.532;2024-03-29T10:06:49;13.10;91.00
52481;DHT22;38393;52.404;13.532;2024-03-29T10:09:18;13.10;91.50
52481;DHT22;38393;52.404;13.532;2024-03-29T10:11:44;13.10;90.70
52481;DHT22;38393;52.404;13.532;2024-03-29T10:14:10;13.00;90.70
52481;DHT22;38393;52.404;13.532;2024-03-29T10:16:36;13.00;91.40
52481;DHT22;38393;52.404;13.532;2024-03-29T10:19:01;13.10;91.00
52481;DHT22;38393;52.404;13.532;2024-03-29T10:21:27;13.10;91.70
52481;DHT22;38393;52.404;13.532;2024-03-29T10:23:53;12.90;91.60
52481;DHT22;38393;52.404;13.532;2024-03-29T10:26:19;12.70;93.00
52481;DHT22;38393;52.404;13.532;2024-03-29T10:28:47;12.40;94.10
52481;DHT22;38393;52.404;13.532;2024-03-29T10:31:13;12.10;96.10
52481;DHT22;38393;52.404;13.532;2024-03-29T10:33:41;12.00;98.40
52481;DHT22;38393;52.404;13.532;2024-03-29T10:36:07;12.00;97.60
52481;DHT22;38393;52.404;13.532;2024-03-29T10:38:34;12.10;98.00
52481;DHT22;38393;52.404;13.532;2024-03-29T10:41:01;12.10;98.10
52481;DHT22;38393;52.404;13.532;2024-03-29T10:43:29;12.10;99.80
52481;DHT22;38393;52.404;13.532;2024-03-29T10:45:55;12.10;99.90
52481;DHT22;38393;52.404;13.532;2024-03-29T10:48:25;12.00;99.90
52481;DHT22;38393;52.404;13.532;2024-03-29T10:50:53;12.20;99.90
52481;DHT22;38393;52.404;13.532;2024-03-29T10:53:22;12.20;99.90
52481;DHT22;38393;52.404;13.532;2024-03-29T10:55:49;12.10;99.90
52481;DHT22;38393;52.404;13.532;2024-03-29T10:58:16;12.20;99.90
52481;DHT22;38393;52.404;13.532;2024-03-29T11:00:47;12.30;99.90
52481;DHT22;38393;52.404;13.532;2024-03-29T11:03:20;12.70;99.90
52481;DHT22;38393;52.404;13.532;2024-03-29T11:05:55;13.00;99.60
52481;DHT22;38393;52.404;13.532;2024-03-29T11:08:27;13.30;99.80
52481;DHT22;38393;52.404;13.532;2024-03-29T11:10:58;13.50;98.60
52481;DHT22;38393;52.404;13.532;2024-03-29T11:13:38;13.70;97.60
52481;DHT22;38393;52.404;13.532;2024-03-29T11:16:06;13.80;96.80
52481;DHT22;38393;52.404;13.532;2024-03-29T11:18:32;13.80;95.80
52481;DHT22;38393;52.404;13.532;2024-03-29T11:20:58;13.60;96.20
52481;DHT22;38393;52.404;13.532;2024-03-29T11:23:26;13.70;94.80
52481;DHT22;38393;52.404;13.532;2024-03-29T11:25:54;13.80;96.90
52481;DHT22;38393;52.404;13.532;2024-03-29T11:28:24;14.00;96.20
52481;DHT22;38393;52.404;13.532;2024-03-29T11:30:52;14.00;93.90
52481;DHT22;38393;52.404;13.532;2024-03-29T11:33:45;13.70;94.60
52481;DHT22;38393;52.404;13.532;2024-03-29T11:36:17;13.70;94.20
52481;DHT22;38393;52.404;13.532;2024-03-29T11:38:45;13.60;95.10
52481;DHT22;38393;52.404;13.532;2024-03-29T11:41:15;13.70;95.30
52481;DHT22;38393;52.404;13.532;2024-03-29T11:43:41;13.60;94.70
52481;DHT22;38393;52.404;13.532;2024-03-29T11:46:10;13.60;95.60
52481;DHT22;38393;52.404;13.532;2024-03-29T11:48:36;13.70;95.20
52481;DHT22;38393;52.404;13.532;2024-03-29T11:51:07;13.70;94.50
52481;DHT22;38393;52.404;13.532;2024-03-29T11:53:35;13.60;94.30
52481;DHT22;38393;52.404;13.532;2024-03-29T11:56:02;13.70;94.10
52481;DHT22;38393;52.404;13.532;2024-03-29T11:58:29;13.60;95.00
52481;DHT22;38393;52.404;13.532;2024-03-29T12:00:56;13.50;95.70
52481;DHT22;38393;52.404;13.532;2024-03-29T12:03:27;13.70;96.60
52481;DHT22;38393;52.404;13.532;2024-03-29T12:05:53;13.50;96.00
52481;DHT22;38393;52.404;13.532;2024-03-29T12:08:21;13.60;96.60
52481;DHT22;38393;52.404;13.532;2024-03-29T12:10:46;13.50;95.70
52481;DHT22;38393;52.404;13.532;2024-03-29T12:13:15;13.60;94.60
52481;DHT22;38393;52.404;13.532;2024-03-29T12:15:40;13.50;93.90
52481;DHT22;38393;52.404;13.532;2024-03-29T12:18:06;13.60;94.70
52481;DHT22;38393;52.404;13.532;2024-03-29T12:20:32;13.70;94.20
52481;DHT22;38393;52.404;13.532;2024-03-29T12:23:02;13.70;94.60
52481;DHT22;38393;52.404;13.532;2024-03-29T12:25:29;13.90;94.00
52481;DHT22;38393;52.404;13.532;2024-03-29T12:27:55;14.00;93.90
52481;DHT22;38393;52.404;13.532;2024-03-29T12:30:21;14.40;92.20
52481;DHT22;38393;52.404;13.532;2024-03-29T12:32:47;14.60;91.00
52481;DHT22;38393;52.404;13.532;2024-03-29T12:35:14;14.70;91.60
52481;DHT22;38393;52.404;13.532;2024-03-29T12:37:50;14.70;89.40
52481;DHT22;38393;52.404;13.532;2024-03-29T12:40:19;14.90;89.80
52481;DHT22;38393;52.404;13.532;2024-03-29T12:42:51;15.20;87.40
52481;DHT22;38393;52.404;13.532;2024-03-29T12:45:18;15.30;87.50
52481;DHT22;38393;52.404;13.532;2024-03-29T12:47:44;15.50;84.70
52481;DHT22;38393;52.404;13.532;2024-03-29T12:50:13;15.40;83.60
52481;DHT22;38393;52.404;13.532;2024-03-29T12:52:43;15.50;83.80
52481;DHT22;38393;52.404;13.532;2024-03-29T12:55:08;15.70;83.30
52481;DHT22;38393;52.404;13.532;2024-03-29T12:57:35;15.90;81.40
52481;DHT22;38393;52.404;13.532;2024-03-29T13:00:01;16.10;82.30
52481;DHT22;38393;52.404;13.532;2024-03-29T13:02:27;16.20;79.30
52481;DHT22;38393;52.404;13.532;2024-03-29T13:04:53;16.10;77.90
52481;DHT22;38393;52.404;13.532;2024-03-29T13:07:18;16.00;76.90
52481;DHT22;38393;52.404;13.532;2024-03-29T13:09:44;16.00;79.20
52481;DHT22;38393;52.404;13.532;2024-03-29T13:12:09;15.90;75.20
52481;DHT22;38393;52.404;13.532;2024-03-29T13:14:34;16.10;73.90
52481;DHT22;38393;52.404;13.532;2024-03-29T13:17:00;15.80;74.40
52481;DHT22;38393;52.404;13.532;2024-03-29T13:19:26;15.70;73.80
52481;DHT22;38393;52.404;13.532;2024-03-29T13:21:51;15.60;73.10
52481;DHT22;38393;52.404;13.532;2024-03-29T13:24:17;15.60;70.10
52481;DHT22;38393;52.404;13.532;2024-03-29T13:26:42;15.50;70.70
52481;DHT22;38393;52.404;13.532;2024-03-29T13:29:08;15.40;71.90
52481;DHT22;38393;52.404;13.532;2024-03-29T13:31:34;15.30;71.40
52481;DHT22;38393;52.404;13.532;2024-03-29T13:34:00;15.30;70.40
52481;DHT22;38393;52.404;13.532;2024-03-29T13:36:29;15.40;69.80
52481;DHT22;38393;52.404;13.532;2024-03-29T13:38:55;15.60;69.80
52481;DHT22;38393;52.404;13.532;2024-03-29T13:41:21;15.60;69.70
52481;DHT22;38393;52.404;13.532;2024-03-29T13:43:47;15.60;68.40
52481;DHT22;38393;52.404;13.532;2024-03-29T13:46:12;15.90;68.70
52481;DHT22;38393;52.404;13.532;2024-03-29T13:48:38;15.80;67.30
52481;DHT22;38393;52.404;13.532;2024-03-29T13:51:03;15.90;67.10
52481;DHT22;38393;52.404;13.532;2024-03-29T13:53:29;16.00;65.20
52481;DHT22;38393;52.404;13.532;2024-03-29T13:56:00;16.10;67.00
52481;DHT22;38393;52.404;13.532;2024-03-29T13:58:26;16.00;66.30
52481;DHT22;38393;52.404;13.532;2024-03-29T14:00:53;16.00;65.50
52481;DHT22;38393;52.404;13.532;2024-03-29T14:03:21;16.10;66.10
52481;DHT22;38393;52.404;13.532;2024-03-29T14:05:48;16.10;64.30
52481;DHT22;38393;52.404;13.532;2024-03-29T14:08:13;16.30;64.20
52481;DHT22;38393;52.404;13.532;2024-03-29T14:10:39;16.30;64.10
52481;DHT22;38393;52.404;13.532;2024-03-29T14:13:04;16.50;64.10
52481;DHT22;38393;52.404;13.532;2024-03-29T14:15:30;16.70;65.50
52481;DHT22;38393;52.404;13.532;2024-03-29T14:17:55;17.00;62.80
52481;DHT22;38393;52.404;13.532;2024-03-29T14:20:21;17.00;62.40
52481;DHT22;38393;52.404;13.532;2024-03-29T14:22:47;17.20;62.20
52481;DHT22;38393;52.404;13.532;2024-03-29T14:25:19;16.80;61.10
52481;DHT22;38393;52.404;13.532;2024-03-29T14:27:45;16.70;62.40
52481;DHT22;38393;52.404;13.532;2024-03-29T14:30:20;16.70;62.80
52481;DHT22;38393;52.404;13.532;2024-03-29T14:32:50;16.60;62.10
52481;DHT22;38393;52.404;13.532;2024-03-29T14:35:16;16.50;63.60
52481;DHT22;38393;52.404;13.532;2024-03-29T14:37:45;16.30;62.80
52481;DHT22;38393;52.404;13.532;2024-03-29T14:40:12;16.60;62.90
52481;DHT22;38393;52.404;13.532;2024-03-29T14:42:40;17.10;62.50
52481;DHT22;38393;52.404;13.532;2024-03-29T14:45:06;17.60;61.10
52481;DHT22;38393;52.404;13.532;2024-03-29T14:47:32;17.60;62.10
52481;DHT22;38393;52.404;13.532;2024-03-29T14:49:59;17.30;61.20
52481;DHT22;38393;52.404;13.532;2024-03-29T14:52:25;17.10;63.80
52481;DHT22;38393;52.404;13.532;2024-03-29T14:54:50;16.90;63.90
52481;DHT22;38393;52.404;13.532;2024-03-29T14:57:15;16.80;64.20
52481;DHT22;38393;52.404;13.532;2024-03-29T14:59:44;16.60;64.80
52481;DHT22;38393;52.404;13.532;2024-03-29T15:02:09;16.70;66.80
52481;DHT22;38393;52.404;13.532;2024-03-29T15:04:35;16.60;66.40
52481;DHT22;38393;52.404;13.532;2024-03-29T15:07:02;16.60;65.90
52481;DHT22;38393;52.404;13.532;2024-03-29T15:09:28;16.40;65.40
52481;DHT22;38393;52.404;13.532;2024-03-29T15:11:55;16.30;66.40
52481;DHT22;38393;52.404;13.532;2024-03-29T15:14:20;16.20;67.50
52481;DHT22;38393;52.404;13.532;2024-03-29T15:16:46;16.20;68.20
52481;DHT22;38393;52.404;13.532;2024-03-29T15:19:12;15.90;68.30